Time;durP1;ratioP1;P1;durP2;ratioP2;P2;SDS_P1;SDS_P2;PMS_P1;PMS_P2;Temp;Humidity;BMP_temperature;BMP_pressure;BME280_temperature;BME280_humidity;BME280_pressure;Samples;Min_cycle;Max_cycle;Signal;HPM_P1;HPM_P2
2022/01/14 00:02:22;;;;;;;40.17;35.92;;;;;;;4.53;89.94;101925.83;1559675;89;21002;-74
2022/01/14 00:04:48;;;;;;;51.02;15.48;;;;;;;4.53;89.93;101921.11;1556494;89;20930;-74
2022/01/14 00:07:15;;;;;;;20.77;9.00;;;;;;;4.54;89.94;101916.45;1567268;89;20954;-74
2022/01/14 00:09:41;;;;;;;16.37;7.92;;;;;;;4.55;89.93;101912.65;1562047;89;28123;-74
2022/01/14 00:12:16;;;;;;;15.35;7.53;;;;;;;4.55;89.94;101904.09;1565481;89;21008;-74
2022/01/14 00:14:41;;;;;;;17.73;8.85;;;;;;;4.57;89.97;101905.02;1561701;89;20990;-74
2022/01/14 00:17:12;;;;;;;14.60;9.00;;;;;;;4.57;89.92;101899.89;1539651;90;20979;-74
2022/01/14 00:19:40;;;;;;;17.62;8.80;;;;;;;4.57;89.90;101908.44;1556167;89;20994;-74
2022/01/14 00:22:13;;;;;;;13.05;7.58;;;;;;;4.57;89.88;101911.00;1558575;89;20998;-74
2022/01/14 00:35:32;;;;;;;17.87;7.35;;;;;;;4.60;89.92;101898.70;1572005;89;21620;-74
2022/01/14 00:37:58;;;;;;;13.50;6.92;;;;;;;4.60;89.89;101905.97;1559585;89;21081;-75
2022/01/14 00:40:25;;;;;;;13.08;6.55;;;;;;;4.61;89.90;101895.31;1562388;89;22346;-74
2022/01/14 00:42:52;;;;;;;19.17;6.83;;;;;;;4.61;89.91;101891.06;1570835;89;21180;-74
2022/01/14 00:45:19;;;;;;;22.93;15.03;;;;;;;4.63;89.91;101887.27;1560762;89;21383;-74
2022/01/14 00:47:45;;;;;;;36.28;16.42;;;;;;;4.62;89.89;101883.83;1545513;89;21173;-75
2022/01/14 00:50:14;;;;;;;12.90;6.42;;;;;;;4.63;89.89;101886.84;1561363;89;21604;-74
2022/01/14 00:52:42;;;;;;;21.40;7.15;;;;;;;4.64;89.88;101886.44;1555141;89;21567;-74
2022/01/14 00:55:14;;;;;;;15.78;6.70;;;;;;;4.64;89.88;101884.73;1560964;89;21626;-74
2022/01/14 01:00:25;;;;;;;15.83;7.53;;;;;;;4.66;89.85;101886.06;1561550;89;21533;-74
2022/01/14 01:02:51;;;;;;;16.35;8.30;;;;;;;4.66;89.85;101884.78;1565189;89;22367;-74
2022/01/14 01:05:19;;;;;;;16.42;7.37;;;;;;;4.67;89.86;101879.25;1568852;89;22222;-74
2022/01/14 01:08:04;;;;;;;16.60;9.73;;;;;;;4.67;89.85;101886.94;1564508;89;21565;-74
2022/01/14 01:10:23;;;;;;;18.62;7.00;;;;;;;4.66;89.83;101882.22;1574553;88;21493;-74
2022/01/14 01:12:58;;;;;;;11.00;5.90;;;;;;;4.68;89.85;101884.38;1579955;88;21516;-74
2022/01/14 01:15:21;;;;;;;17.87;6.33;;;;;;;4.67;89.82;101886.94;1570821;88;21666;-74
2022/01/14 01:17:49;;;;;;;14.98;5.40;;;;;;;4.68;89.84;101872.02;1563811;90;21571;-74
2022/01/14 01:20:18;;;;;;;13.22;5.53;;;;;;;4.69;89.82;101868.59;1572199;90;22308;-74
2022/01/14 01:22:50;;;;;;;17.98;6.25;;;;;;;4.68;89.82;101867.73;1570958;88;21468;-74
2022/01/14 01:25:21;;;;;;;17.57;6.20;;;;;;;4.68;89.81;101858.77;1573015;89;22328;-74
2022/01/14 01:27:47;;;;;;;14.95;5.75;;;;;;;4.69;89.81;101845.55;1573358;88;21116;-74
2022/01/14 01:30:48;;;;;;;21.05;6.00;;;;;;;4.70;89.80;101848.56;1580454;90;21082;-74
2022/01/14 01:32:48;;;;;;;18.07;6.03;;;;;;;4.70;89.82;101840.88;1570942;88;21604;-74
2022/01/14 01:35:15;;;;;;;13.60;5.80;;;;;;;4.71;89.81;101843.89;1565029;90;21074;-74
2022/01/14 01:37:42;;;;;;;16.52;6.72;;;;;;;4.71;89.79;101820.42;1581503;90;20947;-74
2022/01/14 01:40:10;;;;;;;16.32;6.42;;;;;;;4.72;89.77;101827.69;1586294;90;21084;-74
2022/01/14 01:42:39;;;;;;;15.45;6.00;;;;;;;4.71;89.78;101819.14;1587056;88;21453;-74
2022/01/14 01:45:10;;;;;;;16.87;6.47;;;;;;;4.71;89.75;101814.42;1577039;89;20965;-74
2022/01/14 01:47:34;;;;;;;17.07;6.95;;;;;;;4.71;89.75;101808.02;1592052;88;20988;-74
2022/01/14 01:50:13;;;;;;;16.20;7.05;;;;;;;4.70;89.73;101808.84;1611904;87;20984;-74
2022/01/14 01:52:40;;;;;;;13.18;5.80;;;;;;;4.70;89.73;101815.25;1585342;89;20988;-74
2022/01/14 01:55:07;;;;;;;14.55;6.37;;;;;;;4.68;89.71;101814.38;1595685;88;21418;-74
2022/01/14 01:57:33;;;;;;;13.72;6.72;;;;;;;4.67;89.72;101819.05;1599844;88;20969;-74
2022/01/14 01:59:59;;;;;;;12.28;6.17;;;;;;;4.65;89.71;101813.47;1598206;88;20928;-74
2022/01/14 02:02:26;;;;;;;12.90;6.30;;;;;;;4.65;89.71;101817.72;1602728;88;20985;-74
2022/01/14 02:04:52;;;;;;;14.85;6.65;;;;;;;4.64;89.70;101815.57;1625660;88;20950;-74
2022/01/14 02:07:18;;;;;;;15.00;6.73;;;;;;;4.64;89.73;101803.17;1607766;87;20945;-74
2022/01/14 02:09:44;;;;;;;16.07;7.95;;;;;;;4.65;89.74;101810.03;1586764;88;22207;-74
2022/01/14 02:12:11;;;;;;;14.00;7.57;;;;;;;4.64;89.72;101801.48;1584633;88;21025;-74
2022/01/14 02:14:54;;;;;;;18.73;7.78;;;;;;;4.63;89.71;101792.06;1578708;88;21063;-74
2022/01/14 02:22:48;;;;;;;17.37;6.90;;;;;;;4.50;89.62;101775.91;1578604;88;21093;-73
2022/01/14 02:25:15;;;;;;;16.10;7.60;;;;;;;4.59;89.73;101784.25;1575626;88;21589;-73
2022/01/14 02:27:44;;;;;;;14.10;7.12;;;;;;;4.59;89.71;101784.25;1580303;88;22293;-73
2022/01/14 02:30:11;;;;;;;17.77;8.38;;;;;;;4.57;89.70;101773.09;1578829;88;21730;-73
2022/01/14 02:32:39;;;;;;;23.60;9.18;;;;;;;4.57;89.72;101780.37;1575583;88;21101;-73
2022/01/14 02:35:08;;;;;;;21.02;8.05;;;;;;;4.56;89.73;101775.20;1571634;88;21588;-73
2022/01/14 02:37:35;;;;;;;15.13;7.28;;;;;;;4.57;89.75;101784.62;1580285;88;21120;-74
2022/01/14 02:40:02;;;;;;;16.32;8.08;;;;;;;4.56;89.75;101773.92;1557242;88;21633;-74
2022/01/14 02:42:28;;;;;;;15.95;7.00;;;;;;;4.57;89.72;101782.06;1582101;88;21591;-74
2022/01/14 02:45:00;;;;;;;21.37;8.33;;;;;;;4.56;89.73;101781.61;1579157;88;21096;-74
2022/01/14 02:47:22;;;;;;;20.27;7.72;;;;;;;4.55;89.74;101774.34;1584515;88;21089;-74
2022/01/14 02:49:48;;;;;;;14.80;6.47;;;;;;;4.56;89.74;101780.33;1573918;88;21015;-73
2022/01/14 02:52:14;;;;;;;15.35;7.45;;;;;;;4.56;89.73;101768.80;1576398;88;21621;-74
2022/01/14 02:55:02;;;;;;;21.50;7.60;;;;;;;4.55;89.74;101763.22;1565023;88;21113;-74
2022/01/14 02:57:09;;;;;;;17.55;6.83;;;;;;;4.55;89.74;101761.94;1593035;88;21960;-74
2022/01/14 02:59:39;;;;;;;19.40;10.45;;;;;;;4.55;89.71;101752.98;1598192;87;21152;-74
2022/01/14 03:02:09;;;;;;;245.12;227.70;;;;;;;4.54;89.71;101746.98;1591672;88;21748;-74
2022/01/14 03:04:39;;;;;;;64.45;54.27;;;;;;;4.55;89.73;101746.58;1595924;88;21066;-74
2022/01/14 03:07:06;;;;;;;164.30;150.45;;;;;;;4.54;89.75;101738.44;1595848;87;21087;-74
2022/01/14 03:09:32;;;;;;;31.23;26.80;;;;;;;4.55;89.75;101746.58;1599966;87;21617;-74
2022/01/14 03:12:02;;;;;;;29.70;13.70;;;;;;;4.55;89.73;101740.17;1589988;87;21120;-74
2022/01/14 03:14:28;;;;;;;18.07;8.28;;;;;;;4.54;89.76;101740.59;1622090;88;20946;-74
2022/01/14 03:16:59;;;;;;;12.87;5.77;;;;;;;4.56;89.74;101739.34;1592305;87;21519;-74
2022/01/14 03:19:26;;;;;;;17.07;6.62;;;;;;;4.56;89.76;101733.81;1591473;88;20945;-74
2022/01/14 03:22:18;;;;;;;12.98;5.28;;;;;;;4.57;89.73;101744.92;1597178;87;21171;-73
2022/01/14 03:27:01;;;;;;;21.53;6.37;;;;;;;4.59;89.78;101736.86;1594069;87;20945;-74
2022/01/14 03:29:27;;;;;;;9.10;4.53;;;;;;;4.60;89.77;101733.06;1599163;87;21490;-74
2022/01/14 03:31:53;;;;;;;14.47;5.00;;;;;;;4.59;89.78;101735.17;1597159;88;20937;-74
2022/01/14 03:34:19;;;;;;;8.43;4.07;;;;;;;4.60;89.78;101736.04;1597156;87;21655;-74
2022/01/14 03:36:45;;;;;;;13.22;4.90;;;;;;;4.61;89.76;101733.52;1597237;88;20969;-74
2022/01/14 03:39:11;;;;;;;19.40;4.75;;;;;;;4.62;89.75;101727.56;1597368;88;21411;-74
2022/01/14 03:41:37;;;;;;;12.13;4.20;;;;;;;4.63;89.76;101744.67;1597127;88;21052;-74
2022/01/14 03:44:04;;;;;;;17.73;4.97;;;;;;;4.56;89.88;101715.88;1593088;87;21033;-74
2022/01/14 03:46:30;;;;;;;;;;;;;;;4.67;89.76;101729.38;1601775;88;20961;-74
2022/01/14 03:48:56;;;;;;;14.40;5.07;;;;;;;4.69;89.75;101734.97;1591496;87;20164;-74
2022/01/14 03:51:27;;;;;;;14.70;4.83;;;;;;;4.69;89.75;101731.13;1600856;88;20959;-74
2022/01/14 03:53:53;;;;;;;11.20;4.75;;;;;;;4.70;89.72;101725.59;1604641;87;20930;-74
2022/01/14 03:56:19;;;;;;;14.40;5.43;;;;;;;4.72;89.93;101721.37;1599487;87;21680;-74
2022/01/14 03:58:45;;;;;;;14.85;5.00;;;;;;;4.72;89.93;101721.37;1581342;88;21568;-74
2022/01/14 04:01:12;;;;;;;12.43;4.00;;;;;;;4.71;89.71;101728.60;1592390;88;21468;-74
2022/01/14 04:03:40;;;;;;;11.15;4.08;;;;;;;4.71;89.71;101724.76;1589568;87;20938;-74
2022/01/14 04:06:07;;;;;;;11.43;4.42;;;;;;;4.70;89.71;101720.46;1596611;87;21041;-74
2022/01/14 04:08:34;;;;;;;13.00;4.08;;;;;;;4.71;89.71;101717.07;1566994;89;21002;-74
2022/01/14 04:11:02;;;;;;;8.98;4.20;;;;;;;4.70;89.72;101714.05;1614330;86;20958;-74
2022/01/14 04:13:47;;;;;;;11.57;5.08;;;;;;;4.70;89.76;101708.94;1598932;88;20993;-74
2022/01/14 04:16:13;;;;;;;12.95;4.50;;;;;;;4.69;89.73;101698.23;1598386;87;21057;-73
2022/01/14 04:18:39;;;;;;;14.25;6.03;;;;;;;4.67;89.75;101698.64;1598380;88;21121;-74
2022/01/14 04:21:05;;;;;;;18.30;6.28;;;;;;;4.65;89.74;101696.04;1595909;88;21147;-74
2022/01/14 04:23:32;;;;;;;11.50;5.50;;;;;;;4.63;89.76;101688.31;1600461;88;21465;-74
2022/01/14 04:25:58;;;;;;;15.13;5.17;;;;;;;4.62;89.76;101673.77;1612192;87;21521;-74
2022/01/14 04:28:27;;;;;;;;;;;;;;;4.60;89.76;101662.62;1593412;88;20958;-74
2022/01/14 04:30:56;;;;;;;15.38;5.50;;;;;;;4.59;89.78;101664.73;1592483;87;20150;-73
2022/01/14 04:33:25;;;;;;;11.20;6.30;;;;;;;4.58;89.82;101658.28;1590385;88;21057;-73
2022/01/14 04:35:52;;;;;;;11.45;6.30;;;;;;;4.58;89.80;101639.08;1597314;88;20981;-73
2022/01/14 04:38:18;;;;;;;16.55;6.42;;;;;;;4.56;89.78;101643.30;1597509;88;20948;-73
2022/01/14 04:40:44;;;;;;;15.27;6.30;;;;;;;4.55;89.81;101646.27;1597661;87;20975;-73
2022/01/14 04:43:12;;;;;;;12.30;6.12;;;;;;;4.54;89.79;101633.02;1598833;88;22175;-73
2022/01/14 04:48:08;;;;;;;10.65;6.28;;;;;;;4.52;89.80;101633.39;1596117;89;21083;-73
2022/01/14 04:50:34;;;;;;;12.65;6.40;;;;;;;4.51;89.78;101628.23;1585185;89;21020;-74
2022/01/14 04:53:01;;;;;;;12.53;6.37;;;;;;;4.50;89.85;101618.39;1598466;88;20954;-74
2022/01/14 04:55:27;;;;;;;;;;;;;;;4.50;89.84;101625.21;1591437;88;21073;-74
2022/01/14 04:57:56;;;;;;;14.90;6.35;;;;;;;4.48;89.87;101630.30;1590872;87;20610;-74
2022/01/14 05:00:25;;;;;;;20.20;6.92;;;;;;;4.48;89.84;101624.31;1599198;88;21065;-74
2022/01/14 05:02:54;;;;;;;12.53;6.47;;;;;;;4.46;89.86;101630.67;1605499;87;21646;-74
2022/01/14 05:05:24;;;;;;;14.30;6.62;;;;;;;4.46;89.87;101631.95;1597643;87;20966;-74
2022/01/14 05:07:52;;;;;;;17.25;6.92;;;;;;;4.45;89.87;101619.98;1600631;87;20998;-74
2022/01/14 05:12:54;;;;;;;15.68;6.65;;;;;;;4.44;89.88;101614.81;1544543;88;20953;-74
2022/01/14 05:15:20;;;;;;;21.43;10.10;;;;;;;4.43;89.90;101611.39;1554291;88;21722;-74
2022/01/14 05:17:49;;;;;;;22.55;15.25;;;;;;;4.42;89.88;101600.69;1584774;88;21145;-73
2022/01/14 05:20:17;;;;;;;16.07;8.55;;;;;;;4.44;89.92;101596.89;1598549;88;21070;-75
2022/01/14 05:22:44;;;;;;;14.55;7.50;;;;;;;4.43;89.94;101605.41;1587804;88;21109;-71
2022/01/14 05:25:13;;;;;;;13.60;7.17;;;;;;;4.43;89.92;101593.88;1597994;87;21533;-72
2022/01/14 05:27:41;;;;;;;19.65;7.55;;;;;;;4.43;89.92;101597.72;1599627;88;20986;-72
2022/01/14 05:30:11;;;;;;;11.75;6.53;;;;;;;4.44;89.95;101598.17;1593517;88;21573;-72
2022/01/14 05:32:37;;;;;;;10.30;5.42;;;;;;;4.44;89.97;101590.48;1602610;88;21459;-71
2022/01/14 05:35:04;;;;;;;11.83;5.70;;;;;;;4.45;89.99;101586.69;1579467;88;21143;-72
2022/01/14 05:37:30;;;;;;;10.80;6.12;;;;;;;4.46;89.97;101585.86;1601590;88;21026;-72
2022/01/14 05:39:57;;;;;;;11.30;6.43;;;;;;;4.48;89.98;101584.62;1589348;88;21014;-72
2022/01/14 05:42:24;;;;;;;12.53;6.35;;;;;;;4.48;90.00;101579.49;1596452;88;21032;-71
2022/01/14 05:44:51;;;;;;;13.20;6.35;;;;;;;4.50;90.03;101589.36;1582921;88;20985;-72
2022/01/14 05:47:17;;;;;;;8.43;5.40;;;;;;;4.53;90.02;101586.45;1582000;88;20938;-75
2022/01/14 05:49:45;;;;;;;9.28;5.47;;;;;;;4.53;90.02;101596.70;1589918;88;20950;-76
2022/01/14 05:52:11;;;;;;;21.70;19.35;;;;;;;4.55;90.02;101583.52;1581958;88;20951;-76
2022/01/14 05:54:36;;;;;;;9.40;4.73;;;;;;;4.56;90.02;101588.23;1543493;91;20983;-76
2022/01/14 05:57:03;;;;;;;9.17;6.57;;;;;;;4.58;90.03;101585.29;1584903;88;20930;-76
2022/01/14 05:59:29;;;;;;;10.60;5.40;;;;;;;4.58;90.02;101579.75;1576545;89;21047;-76
2022/01/14 06:01:55;;;;;;;10.32;6.40;;;;;;;4.60;90.03;101564.42;1563669;89;21167;-75
2022/01/14 06:04:24;;;;;;;10.93;6.92;;;;;;;4.60;90.05;101570.41;1570667;89;21033;-75
2022/01/14 06:06:50;;;;;;;24.32;14.05;;;;;;;4.61;90.01;101589.20;1578457;88;21549;-75
2022/01/14 06:09:15;;;;;;;9.53;7.13;;;;;;;4.62;90.03;101569.17;1590915;88;21475;-75
2022/01/14 06:11:41;;;;;;;12.87;9.10;;;;;;;4.61;89.98;101569.58;1588023;89;21715;-75
2022/01/14 06:14:07;;;;;;;9.90;6.67;;;;;;;4.62;90.04;101559.78;1608523;87;20966;-75
2022/01/14 06:16:33;;;;;;;15.97;7.37;;;;;;;4.62;90.02;101555.08;1587417;87;20974;-75
2022/01/14 06:18:59;;;;;;;19.10;8.20;;;;;;;4.62;89.99;101557.64;1581498;88;20999;-75
2022/01/14 06:21:25;;;;;;;17.90;8.27;;;;;;;4.61;90.04;101548.22;1605382;87;20901;-75
2022/01/14 06:23:51;;;;;;;24.87;19.48;;;;;;;4.61;90.05;101537.98;1601091;87;21424;-75
2022/01/14 06:26:17;;;;;;;13.40;8.53;;;;;;;4.61;90.03;101520.05;1604821;87;20959;-75
2022/01/14 06:28:43;;;;;;;15.03;8.17;;;;;;;4.61;90.06;101514.51;1596971;88;20982;-75
2022/01/14 06:31:10;;;;;;;16.45;8.28;;;;;;;4.61;90.04;101522.19;1572470;89;20962;-75
2022/01/14 06:33:35;;;;;;;21.87;9.40;;;;;;;4.62;90.06;101529.46;1591240;87;20974;-75
2022/01/14 06:36:02;;;;;;;18.80;8.40;;;;;;;4.63;90.06;101532.47;1588457;87;20907;-75
2022/01/14 06:38:27;;;;;;;15.20;8.13;;;;;;;4.64;90.12;101528.67;1605298;87;21623;-75
2022/01/14 06:40:53;;;;;;;21.53;7.73;;;;;;;4.65;90.11;101512.47;1597921;87;20909;-75
2022/01/14 06:43:19;;;;;;;17.67;9.03;;;;;;;4.67;90.09;101519.32;1601268;87;21640;-75
2022/01/14 06:45:46;;;;;;;47.95;23.42;;;;;;;4.69;90.11;101527.45;1569253;89;20921;-75
2022/01/14 06:48:12;;;;;;;17.82;7.60;;;;;;;4.70;90.07;101511.67;1597912;87;20986;-75
2022/01/14 06:50:38;;;;;;;18.87;7.53;;;;;;;4.71;90.07;101518.53;1586206;88;21483;-75
2022/01/14 06:53:04;;;;;;;13.13;7.70;;;;;;;4.72;90.09;101507.03;1605737;88;21434;-75
2022/01/14 06:55:30;;;;;;;16.93;7.90;;;;;;;4.74;90.10;101507.06;1598585;87;21697;-75
2022/01/14 06:57:56;;;;;;;19.42;7.90;;;;;;;4.79;90.09;101528.53;1567756;89;20902;-75
2022/01/14 07:00:22;;;;;;;15.77;8.00;;;;;;;4.79;90.09;101528.53;1603476;88;21411;-75
2022/01/14 07:02:48;;;;;;;18.40;8.40;;;;;;;4.82;90.08;101526.04;1603239;87;20947;-75
2022/01/14 07:05:15;;;;;;;13.03;7.62;;;;;;;4.83;90.11;101514.95;1590848;87;21033;-75
2022/01/14 07:07:41;;;;;;;15.88;7.30;;;;;;;4.84;90.08;101512.84;1597605;88;21426;-75
2022/01/14 07:10:09;;;;;;;11.70;6.53;;;;;;;4.85;90.05;101524.41;1601789;87;20942;-75
2022/01/14 07:12:39;;;;;;;15.20;7.28;;;;;;;4.88;90.11;101527.45;1599434;87;21498;-75
2022/01/14 07:15:12;;;;;;;17.15;7.20;;;;;;;4.90;90.10;101531.78;1597753;88;21595;-75
2022/01/14 07:17:39;;;;;;;11.80;7.45;;;;;;;4.92;90.10;101530.12;1568805;89;20957;-76
2022/01/14 07:20:11;;;;;;;12.40;7.00;;;;;;;4.93;90.09;101524.16;1599754;88;21394;-76
2022/01/14 07:22:36;;;;;;;34.45;13.32;;;;;;;4.95;90.10;101520.34;1567549;89;21046;-75
2022/01/14 07:25:03;;;;;;;11.97;6.00;;;;;;;4.99;90.13;101510.61;1597860;88;21165;-75
2022/01/14 07:27:29;;;;;;;10.28;5.95;;;;;;;5.01;90.12;101516.64;1599461;87;21041;-75
2022/01/14 07:29:55;;;;;;;15.38;6.12;;;;;;;5.03;90.12;101518.81;1598455;87;21158;-75
2022/01/14 07:32:22;;;;;;;12.65;5.65;;;;;;;5.05;90.10;101515.87;1598205;88;21177;-75
2022/01/14 07:34:49;;;;;;;87.70;77.22;;;;;;;5.08;90.12;101513.37;1595223;88;21090;-75
2022/01/14 07:37:16;;;;;;;10.13;5.03;;;;;;;5.14;90.17;101526.73;1595800;87;21575;-75
2022/01/14 07:39:42;;;;;;;18.42;5.75;;;;;;;5.18;90.16;101520.83;1602476;88;21382;-75
2022/01/14 07:42:09;;;;;;;6.42;4.55;;;;;;;5.21;90.14;101510.61;1603401;87;21006;-75
2022/01/14 07:44:35;;;;;;;11.83;4.62;;;;;;;5.25;90.13;101506.86;1599151;87;20981;-76
2022/01/14 07:47:01;;;;;;;10.30;4.80;;;;;;;5.29;90.14;101497.11;1607062;88;20925;-75
2022/01/14 07:49:27;;;;;;;7.30;4.70;;;;;;;5.33;90.15;101508.29;1598494;88;21500;-76
2022/01/14 07:51:53;;;;;;;42.27;12.80;;;;;;;5.38;90.16;101512.23;1597077;87;21023;-76
2022/01/14 07:54:19;;;;;;;12.35;5.55;;;;;;;5.39;90.12;101512.67;1596158;87;21462;-76
2022/01/14 07:56:51;;;;;;;13.05;4.60;;;;;;;5.42;90.10;101525.56;1596885;88;20983;-76
2022/01/14 07:59:23;;;;;;;9.03;4.20;;;;;;;5.43;90.11;101519.17;1603460;88;20989;-76
2022/01/14 08:01:51;;;;;;;8.95;4.50;;;;;;;5.45;90.12;101514.94;1604814;87;21074;-76
2022/01/14 08:04:18;;;;;;;9.95;4.37;;;;;;;5.48;90.08;101516.70;1579224;89;21395;-76
2022/01/14 08:06:48;;;;;;;8.50;3.42;;;;;;;5.50;90.11;101517.18;1600071;87;20940;-76
2022/01/14 08:09:14;;;;;;;8.40;3.83;;;;;;;5.51;90.09;101508.65;1569675;89;21046;-76
2022/01/14 08:11:42;;;;;;;7.25;3.27;;;;;;;5.54;90.10;101520.25;1600473;87;20914;-76
2022/01/14 08:14:08;;;;;;;10.78;4.60;;;;;;;5.56;90.10;101528.84;1598620;87;21564;-76
2022/01/14 08:16:34;;;;;;;20.80;18.27;;;;;;;5.59;90.11;101522.91;1594348;88;21187;-75
2022/01/14 08:19:00;;;;;;;7.57;3.00;;;;;;;5.60;90.13;101529.34;1570761;89;21652;-75
2022/01/14 08:21:26;;;;;;;5.83;2.27;;;;;;;5.63;90.09;101525.97;1596967;88;21179;-75
2022/01/14 08:23:52;;;;;;;7.90;3.63;;;;;;;5.64;90.08;101523.86;1594862;87;20954;-76
2022/01/14 08:26:18;;;;;;;6.65;3.70;;;;;;;5.65;90.11;101515.32;1602540;87;21151;-76
2022/01/14 08:28:44;;;;;;;5.93;3.40;;;;;;;5.67;90.07;101512.37;1601182;88;21472;-75
2022/01/14 08:31:11;;;;;;;6.22;3.60;;;;;;;5.68;90.09;101514.09;1596623;87;21091;-75
2022/01/14 08:33:37;;;;;;;7.33;3.42;;;;;;;5.71;90.10;101509.44;1592727;87;21676;-75
2022/01/14 08:36:04;;;;;;;4.10;2.83;;;;;;;5.73;90.12;101521.84;1596348;87;21150;-75
2022/01/14 08:38:30;;;;;;;8.85;3.87;;;;;;;5.75;90.10;101534.28;1595765;87;21168;-76
2022/01/14 08:40:56;;;;;;;10.55;3.77;;;;;;;5.76;90.09;101534.73;1599152;88;21158;-75
2022/01/14 08:43:22;;;;;;;;;;;;;;;5.77;90.10;101510.80;1600693;88;20938;-76
2022/01/14 08:45:49;;;;;;;11.18;4.28;;;;;;;5.79;90.10;101509.13;1597071;87;20458;-76
2022/01/14 08:48:15;;;;;;;13.32;6.78;;;;;;;5.79;90.10;101502.30;1591502;88;21341;-76
2022/01/14 08:50:41;;;;;;;10.82;4.25;;;;;;;5.81;90.12;101502.32;1612762;87;20954;-76
2022/01/14 08:53:13;;;;;;;6.12;3.20;;;;;;;5.82;90.13;101511.33;1601782;87;21066;-76
2022/01/14 08:55:39;;;;;;;7.35;3.77;;;;;;;5.84;90.16;101510.94;1595742;87;20966;-76
2022/01/14 08:58:07;;;;;;;6.22;3.33;;;;;;;5.85;90.15;101504.97;1598689;87;21090;-76
2022/01/14 09:00:33;;;;;;;7.62;4.12;;;;;;;5.87;90.13;101511.41;1597742;88;20974;-75
2022/01/14 09:03:00;;;;;;;12.07;3.58;;;;;;;5.88;90.13;101506.72;1564278;89;21536;-76
2022/01/14 09:05:26;;;;;;;7.40;2.92;;;;;;;5.86;90.13;101522.09;1598987;87;21017;-76
2022/01/14 09:07:52;;;;;;;6.77;3.00;;;;;;;5.88;90.13;101524.27;1609489;87;20958;-76
2022/01/14 09:10:19;;;;;;;7.13;4.07;;;;;;;5.87;90.13;101516.13;1577967;88;20939;-76
2022/01/14 09:12:46;;;;;;;3.33;2.67;;;;;;;5.87;90.14;101514.84;1590920;86;21146;-76
2022/01/14 09:15:13;;;;;;;5.00;3.00;;;;;;;5.87;90.14;101510.12;1590433;88;21015;-76
2022/01/14 09:17:40;;;;;;;9.23;3.77;;;;;;;5.88;90.17;101502.45;1591087;88;20902;-76
2022/01/14 09:20:09;;;;;;;5.55;3.25;;;;;;;5.90;90.19;101499.53;1586785;88;20955;-76
2022/01/14 09:22:36;;;;;;;6.65;3.15;;;;;;;5.91;90.20;101511.52;1592307;88;21553;-76
2022/01/14 09:25:05;;;;;;;5.40;2.52;;;;;;;5.92;90.19;101499.14;1589400;88;26607;-76
2022/01/14 09:27:33;;;;;;;3.80;2.67;;;;;;;5.94;90.21;101497.87;1587273;88;21449;-76
2022/01/14 09:30:01;;;;;;;3.67;2.80;;;;;;;5.95;90.23;101495.34;1592547;88;20941;-76
2022/01/14 09:32:27;;;;;;;4.03;2.58;;;;;;;5.98;90.23;101500.95;1588508;88;20977;-76
2022/01/14 09:34:54;;;;;;;4.45;2.40;;;;;;;6.01;90.23;101506.55;1589377;88;20952;-76
2022/01/14 09:37:20;;;;;;;3.62;2.60;;;;;;;6.02;90.24;101489.89;1585386;88;20954;-76
2022/01/14 09:39:46;;;;;;;6.47;3.60;;;;;;;6.04;90.22;101479.23;1589046;88;20974;-76
2022/01/14 09:42:14;;;;;;;5.87;2.77;;;;;;;6.06;90.22;101483.10;1591280;88;21009;-76
2022/01/14 09:44:42;;;;;;;5.80;2.95;;;;;;;6.07;90.25;101465.58;1596635;88;21022;-76
2022/01/14 09:47:08;;;;;;;4.15;2.87;;;;;;;6.09;90.24;101453.63;1593335;88;21075;-75
2022/01/14 09:49:34;;;;;;;5.87;3.22;;;;;;;6.12;90.22;101451.97;1592827;88;21026;-76
2022/01/14 09:52:01;;;;;;;4.58;2.87;;;;;;;6.15;90.24;101449.88;1569779;89;20969;-76
2022/01/14 09:54:27;;;;;;;4.45;2.58;;;;;;;6.17;90.22;101455.47;1593650;88;21021;-76
2022/01/14 09:56:53;;;;;;;5.25;2.85;;;;;;;6.19;90.21;101456.78;1586843;88;20976;-76
2022/01/14 09:59:19;;;;;;;4.90;2.30;;;;;;;6.20;90.19;101463.64;1588334;88;20934;-74
2022/01/14 10:01:48;;;;;;;6.80;3.12;;;;;;;6.20;90.19;101452.95;1587708;88;20950;-74
2022/01/14 10:04:18;;;;;;;6.32;2.60;;;;;;;6.22;90.21;101452.98;1585550;88;530250;-72
2022/01/14 10:06:53;;;;;;;4.70;2.25;;;;;;;6.23;90.10;101440.16;1597040;88;25464;-72
2022/01/14 10:09:35;;;;;;;4.10;2.12;;;;;;;6.25;90.20;101439.73;1583818;88;21458;-72
2022/01/14 10:12:16;;;;;;;3.02;2.52;;;;;;;6.29;90.19;101448.34;1597238;87;21424;-72
2022/01/14 10:15:08;;;;;;;4.03;2.05;;;;;;;6.30;90.19;101424.39;1600259;87;21537;-72
2022/01/14 10:17:41;;;;;;;1.82;1.60;;;;;;;6.30;90.14;101432.95;1591097;88;20972;-72
2022/01/14 10:20:10;;;;;;;2.70;1.85;;;;;;;6.30;90.14;101416.69;1598206;88;21414;-71
2022/01/14 10:22:44;;;;;;;5.37;2.20;;;;;;;6.31;90.16;101414.56;1587971;87;21352;-72
2022/01/14 10:25:14;;;;;;;3.05;1.98;;;;;;;6.31;90.16;101419.27;1599638;88;21523;-71
2022/01/14 10:27:50;;;;;;;3.87;2.17;;;;;;;6.32;90.16;101420.14;1597450;88;21054;-72
2022/01/14 10:30:31;;;;;;;1.92;1.70;;;;;;;6.32;90.13;101434.27;1599845;87;26949;-72
2022/01/14 10:33:01;;;;;;;3.70;2.08;;;;;;;6.33;90.13;101400.03;1576821;88;21058;-72
2022/01/14 10:35:37;;;;;;;1.75;1.57;;;;;;;6.33;90.16;101418.02;1579022;88;21582;-72
2022/01/14 10:38:10;;;;;;;2.10;1.90;;;;;;;6.34;90.14;101420.16;1587559;88;21011;-72
2022/01/14 10:40:43;;;;;;;3.12;1.82;;;;;;;6.34;90.14;101429.15;1606589;87;21545;-72
2022/01/14 10:43:12;;;;;;;2.98;1.80;;;;;;;6.36;90.18;101424.48;1591685;88;21325;-72
2022/01/14 10:45:39;;;;;;;3.08;1.72;;;;;;;6.36;90.14;101428.33;1605913;88;21431;-72
2022/01/14 10:48:29;;;;;;;;;;;;;;;6.37;90.12;101421.07;1618214;87;20942;-72
2022/01/14 10:50:59;;;;;;;2.20;1.90;;;;;;;6.38;90.12;101420.64;1592731;87;20559;-72
2022/01/14 10:53:36;;;;;;;127.78;25.90;;;;;;;6.38;90.14;101421.94;1593285;88;21193;-72
2022/01/14 10:56:13;;;;;;;1.92;1.62;;;;;;;6.36;90.11;101424.90;1595563;87;21890;-72
2022/01/14 10:58:45;;;;;;;4.70;1.75;;;;;;;6.35;90.13;101407.77;1593738;88;21579;-72
2022/01/14 11:01:20;;;;;;;3.58;1.62;;;;;;;6.34;90.10;101422.73;1591688;87;21471;-72
2022/01/14 11:03:53;;;;;;;4.10;1.95;;;;;;;6.32;90.12;101417.57;1604695;86;20921;-72
2022/01/14 11:06:27;;;;;;;3.10;2.17;;;;;;;6.33;90.17;101419.72;1594803;88;21387;-72
2022/01/14 11:09:03;;;;;;;4.47;1.77;;;;;;;6.33;90.16;101443.70;1607194;88;21372;-72
2022/01/14 11:11:33;;;;;;;3.00;1.55;;;;;;;6.32;90.16;101430.41;1584705;88;27270;-72
2022/01/14 11:13:59;;;;;;;2.12;1.37;;;;;;;6.29;90.14;101420.09;1596449;87;21877;-72
2022/01/14 11:16:25;;;;;;;2.40;1.62;;;;;;;6.28;90.16;101427.36;1591418;88;21371;-72
2022/01/14 11:18:52;;;;;;;5.30;1.90;;;;;;;6.27;90.19;101423.06;1597799;88;20894;-72
2022/01/14 11:24:05;;;;;;;3.58;2.15;;;;;;;6.26;90.19;101417.48;1592410;88;20948;-72
2022/01/14 11:26:39;;;;;;;1.57;1.47;;;;;;;6.24;90.23;101418.74;1601328;87;21486;-72
2022/01/14 11:29:10;;;;;;;1.92;1.82;;;;;;;6.24;90.21;101422.59;1581925;88;21042;-72
2022/01/14 11:31:38;;;;;;;4.33;1.77;;;;;;;6.24;90.22;101432.87;1605577;87;21447;-72
2022/01/14 11:34:36;;;;;;;3.70;1.67;;;;;;;6.24;90.23;101419.16;1593858;88;21574;-72
2022/01/14 11:37:06;;;;;;;4.42;1.70;;;;;;;6.24;90.25;101413.61;1587257;87;21438;-72
2022/01/14 11:39:36;;;;;;;3.33;1.50;;;;;;;6.25;90.30;101411.48;1565254;89;20998;-72
2022/01/14 11:42:14;;;;;;;3.02;1.22;;;;;;;6.29;90.28;101420.95;1591697;89;20961;-72
2022/01/14 11:44:57;;;;;;;4.30;1.35;;;;;;;6.31;90.26;101419.27;1591361;89;21541;-72
2022/01/14 11:47:44;;;;;;;2.30;1.20;;;;;;;6.33;90.27;101418.02;1566981;89;20954;-72
2022/01/14 11:50:32;;;;;;;2.40;1.30;;;;;;;6.36;90.25;101421.91;1594316;89;21029;-72
2022/01/14 11:52:59;;;;;;;4.87;1.32;;;;;;;6.38;90.26;101407.80;1582805;89;20986;-72
2022/01/14 11:55:35;;;;;;;1.17;0.90;;;;;;;6.39;90.25;101427.09;1572938;89;20967;-72
2022/01/14 11:58:09;;;;;;;3.45;1.60;;;;;;;6.41;90.25;101417.70;1589504;89;20970;-72
2022/01/14 12:00:39;;;;;;;2.85;1.20;;;;;;;6.41;90.21;101415.12;1597376;89;21419;-72
2022/01/14 12:03:25;;;;;;;3.52;1.22;;;;;;;6.44;90.24;101415.59;1607159;87;21680;-72
2022/01/14 12:06:03;;;;;;;1.65;0.95;;;;;;;6.45;90.23;101423.33;1591767;88;21076;-72